WetterOnline ( https://www.wetteronline.de )

Wetter aktuell Helgoland

Aktuelles Wetter: Helgoland/Düne (8m)

6-stündlich | Neueste Meldungen
Ortszeit Temperatur Wetter
Di, 22.06. 8:00 14.0° C leicht bewölkt
Di, 22.06. 2:00 13.4° C bedeckt
Mo, 21.06. 20:00 13.2° C bedeckt
Mo, 21.06. 14:00 13.4° C leichter Regen
Mo, 21.06. 8:00 14.1° C bedeckt
Mo, 21.06. 2:00 14.0° C bedeckt
So, 20.06. 20:00 15.4° C leicht bewölkt
So, 20.06. 14:00 16.8° C leicht bewölkt
Ortszeit Temperatur Wetter
Di, 22.06. 8:40 13.5° C wolkig
Di, 22.06. 8:30 14.2° C wolkig
Di, 22.06. 8:20 14.2° C wolkig
Di, 22.06. 8:10 14.1° C wolkig
Di, 22.06. 8:00 14.0° C leicht bewölkt
Di, 22.06. 7:50 14.0° C leicht bewölkt
Di, 22.06. 7:30 13.6° C leicht bewölkt
Di, 22.06. 7:00 13.6° C bewölkt
Ortszeit Relative Feuchte Sichtweite
Di, 22.06. 8:00 72% 35 km
Di, 22.06. 2:00 77% 35 km
Mo, 21.06. 20:00 82% 28 km
Mo, 21.06. 14:00 89% 14 km
Mo, 21.06. 8:00 79% 40 km
Mo, 21.06. 2:00 81% 45 km
So, 20.06. 20:00 79% 40 km
So, 20.06. 14:00 84% 26 km
Ortszeit Relative Feuchte Sichtweite
Di, 22.06. 8:40 75% -
Di, 22.06. 8:30 72% 35 km
Di, 22.06. 8:20 72% -
Di, 22.06. 8:10 72% -
Di, 22.06. 8:00 72% 35 km
Di, 22.06. 7:50 72% -
Di, 22.06. 7:30 73% 35 km
Di, 22.06. 7:00 73% 35 km
Ortszeit Niederschlagsmenge Niederschlagsart
Di, 22.06. 8:00 0.1 l/m2 in 12 Std. -
Di, 22.06. 2:00 0.1 l/m2 in 6 Std. Regen
Mo, 21.06. 20:00 6 l/m2 in 12 Std. Regen
Mo, 21.06. 14:00 4 l/m2 in 6 Std. Regen
Mo, 21.06. 8:00 0.1 l/m2 in 12 Std. Regen
Mo, 21.06. 2:00 0.0 l/m2 in 6 Std. -
So, 20.06. 20:00 0.1 l/m2 in 12 Std. -
So, 20.06. 14:00 0.1 l/m2 in 6 Std. Regen
Ortszeit Niederschlagsmenge Niederschlagsart
Di, 22.06. 8:40 keine Meldung -
Di, 22.06. 8:30 0.0 l/m2 in 1 Std. -
Di, 22.06. 8:20 keine Meldung -
Di, 22.06. 8:10 keine Meldung -
Di, 22.06. 8:00 0.0 l/m2 in 1 Std. -
Di, 22.06. 7:50 keine Meldung -
Di, 22.06. 7:30 0.0 l/m2 in 1 Std. -
Di, 22.06. 7:00 0.0 l/m2 in 1 Std. -
Ortszeit Stärke Spitze Richtung
km/h Bft. km/h Grad Sektor
Di, 22.06. 8:00 22 4 36 330° NW
Di, 22.06. 2:00 22 4 50 330° NW
Mo, 21.06. 20:00 31 5 50 340° N
Mo, 21.06. 14:00 30 5 44 10° N
Mo, 21.06. 8:00 28 4 37 10° N
Mo, 21.06. 2:00 22 4 29 350° N
So, 20.06. 20:00 15 3 50 310° NW
So, 20.06. 14:00 35 5 56 240° SW
Ortszeit Stärke Spitze Richtung
km/h Bft. km/h Grad Sektor
Di, 22.06. 8:40 30 5 - 330° NW
Di, 22.06. 8:30 28 4 35 320° NW
Di, 22.06. 8:20 28 4 - 320° NW
Di, 22.06. 8:10 25 4 - 330° NW
Di, 22.06. 8:00 22 4 29 330° NW
Di, 22.06. 7:50 22 4 - 330° NW
Di, 22.06. 7:30 19 3 28 340° N
Di, 22.06. 7:00 15 3 31 340° N
Ortszeit Untergrenze Bedeckung Gattung
total tief tief mittel hoch
Di, 22.06. 8:00 630 m 3/8 2/8 - - -
Di, 22.06. 2:00 600 m 8/8 8/8 - - -
Mo, 21.06. 20:00 450 m 8/8 8/8 - - -
Mo, 21.06. 14:00 450 m 8/8 8/8 - - -
Mo, 21.06. 8:00 600 m 8/8 8/8 - - -
Mo, 21.06. 2:00 480 m 8/8 8/8 - - -
So, 20.06. 20:00 450 m 2/8 2/8 - - -
So, 20.06. 14:00 270 m 1/8 4/8 - - -
Ortszeit Bedeckungsgrad in Achtel und Wolkenuntergrenze
Di, 22.06. 8:40 2(660m) 5(8700m) 6(9000m)
Di, 22.06. 8:30 3(690m) 4(990m) 7(9000m)
Di, 22.06. 8:20 3(690m) 4(990m) 7(9000m)
Di, 22.06. 8:10 2(630m) 3(810m) 7(9000m)
Di, 22.06. 8:00 2(630m) 3(9000m)
Di, 22.06. 7:50 2(630m) 3(9000m)
Di, 22.06. 7:30 2(630m) 4(1230m)
Di, 22.06. 7:00 2(630m) 5(900m) 7(1170m)
Ortszeit Luftdruck NN (hPa) Tendenz (hPa in 3 Std.)
Di, 22.06. 8:00 1016 + 1,6
Di, 22.06. 2:00 1014 + 0,8
Mo, 21.06. 20:00 1013 + 1,8
Mo, 21.06. 14:00 1010 + 0,7
Mo, 21.06. 8:00 1009 - 0,8
Mo, 21.06. 2:00 1010 - 0,5
So, 20.06. 20:00 1010 + 0,6
So, 20.06. 14:00 1008 + 3,5
Ortszeit Luftdruck NN (hPa) Tendenz (hPa in 3 Std.)
Di, 22.06. 8:40 1016 keine Meldung
Di, 22.06. 8:30 1015 + 0,8
Di, 22.06. 8:20 1015 keine Meldung
Di, 22.06. 8:10 1016 keine Meldung
Di, 22.06. 8:00 1016 + 1,6
Di, 22.06. 7:50 1016 keine Meldung
Di, 22.06. 7:30 1016 + 0,9
Di, 22.06. 7:00 1016 + 1,4
Ortszeit Schneehöhe (cm)
Di, 22.06. 8:00 -
Di, 22.06. 2:00 -
Mo, 21.06. 20:00 -
Mo, 21.06. 14:00 -
Mo, 21.06. 8:00 -
Mo, 21.06. 2:00 -
So, 20.06. 20:00 -
So, 20.06. 14:00 -
Ortszeit Schneehöhe (cm)
Di, 22.06. 8:40 -
Di, 22.06. 8:30 -
Di, 22.06. 8:20 -
Di, 22.06. 8:10 -
Di, 22.06. 8:00 -
Di, 22.06. 7:50 -
Di, 22.06. 7:30 -
Di, 22.06. 7:00 -
Link zu dieser Seite / Seite empfehlen

Das Wetter in ...